Crew | Aerofun Virtual



 METAR AND TAF INFORMATION
METAR FOR LEZL
ADDS - METARS form results

(2347 UTC 11 November 2019)
Data provider http://aviationweather.gov/metar/data/
 
METAR text: LEZL 112330Z 34004KT 9999 FEW040 12/10 Q1017 NOSIG
Conditions at: LEZL (SEVILLA (CIV/MIL, ES) observed 2330 UTC 11 November 2019
Temperature: 12.0°C (54°F)
Dewpoint: 10.0°C (50°F) [RH = 88%]
Pressure (altimeter): 30.03 inches Hg (1017.0 mb)
Winds: from the NNW (340 degrees) at 5 MPH (4 knots; 2.1 m/s)
Visibility: 6 or more miles (10+ km)
Ceiling: at least 12,000 feet AGL
Clouds: few clouds at 4000 feet AGL
Weather: no significant weather observed at this time

METAR text: LEZL 112300Z 36002KT 9999 FEW040 14/11 Q1017 NOSIG
Conditions at: LEZL (SEVILLA (CIV/MIL, ES) observed 2300 UTC 11 November 2019
Temperature: 14.0°C (57°F)
Dewpoint: 11.0°C (52°F) [RH = 82%]
Pressure (altimeter): 30.03 inches Hg (1017.0 mb)
Winds: from the N (360 degrees) at 2 MPH (2 knots; 1.0 m/s)
Visibility: 6 or more miles (10+ km)
Ceiling: at least 12,000 feet AGL
Clouds: few clouds at 4000 feet AGL
Weather: no significant weather observed at this time

Forecast for: LEZL (SEVILLA (CIV/MIL, ES)
Text: TAF LEZL 112000Z 1121/1221 30005KT 9999 FEW040 TX19/1215Z TN10/1206Z
Forecast period: 2100 UTC 11 November 2019 to 2100 UTC 12 November 2019
Forecast type: FROM: standard forecast or significant change
Winds: from the WNW (300 degrees) at 6 MPH (5 knots; 2.6 m/s)
Visibility: 6 or more miles 10+ km)
Ceiling: at least 12,000 feet AGL
Clouds: few clouds at 4000 feet AGL
Weather: no significant weather forecast for this period

 AIRPORT MAP

 RUNWAY INFORMATION
Runway 09 Runway length 11024 ft Runway width 148 ft
Runway elevation 83 ft Runway displaced threshold 0 ft Runway heading 90
Runway 27 Runway length 11024 ft Runway width 148 ft
Runway elevation 111 ft Runway displaced threshold 0 ft Runway heading 270

 AIRPORT FREQUENCIES
Type APP Name APP Frequency 120 MHZ
Type ATIS Name ATIS Frequency 118.175 MHZ
Type GND Name GND Frequency 121.7 MHZ
Type TWR Name TWR Frequency 118.1 MHZ

 AIRPORT NEAR NAVIGATION AIDS
Type NDB Name Sevilla Frequency 420 KHZ
Type VOR-DME Name Sevilla Frequency 113700 KHZ